sensor_id;sensor_type;location;lat;lon;timestamp;P1;durP1;ratioP1;P2;durP2;ratioP2
57832;SDS011;43667;53.036;6.740;2023-11-19T00:02:12;97.55;;;38.28;;
57832;SDS011;43667;53.036;6.740;2023-11-19T00:04:38;102.55;;;39.03;;
57832;SDS011;43667;53.036;6.740;2023-11-19T00:07:05;123.20;;;42.33;;
57832;SDS011;43667;53.036;6.740;2023-11-19T00:09:35;113.18;;;40.08;;
57832;SDS011;43667;53.036;6.740;2023-11-19T00:12:02;113.95;;;41.80;;
57832;SDS011;43667;53.036;6.740;2023-11-19T00:14:29;78.07;;;37.40;;
57832;SDS011;43667;53.036;6.740;2023-11-19T00:16:55;83.28;;;36.92;;
57832;SDS011;43667;53.036;6.740;2023-11-19T00:19:21;104.88;;;39.72;;
57832;SDS011;43667;53.036;6.740;2023-11-19T00:21:47;116.90;;;42.40;;
57832;SDS011;43667;53.036;6.740;2023-11-19T00:24:13;93.18;;;38.20;;
57832;SDS011;43667;53.036;6.740;2023-11-19T00:26:43;80.80;;;37.33;;
57832;SDS011;43667;53.036;6.740;2023-11-19T00:29:09;123.43;;;42.35;;
57832;SDS011;43667;53.036;6.740;2023-11-19T00:31:35;93.70;;;40.40;;
57832;SDS011;43667;53.036;6.740;2023-11-19T00:34:01;95.82;;;40.35;;
57832;SDS011;43667;53.036;6.740;2023-11-19T00:36:27;99.30;;;40.72;;
57832;SDS011;43667;53.036;6.740;2023-11-19T00:38:54;102.22;;;40.60;;
57832;SDS011;43667;53.036;6.740;2023-11-19T00:41:20;79.32;;;37.50;;
57832;SDS011;43667;53.036;6.740;2023-11-19T00:43:47;98.45;;;40.38;;
57832;SDS011;43667;53.036;6.740;2023-11-19T00:46:14;75.50;;;36.35;;
57832;SDS011;43667;53.036;6.740;2023-11-19T00:48:40;91.68;;;39.65;;
57832;SDS011;43667;53.036;6.740;2023-11-19T00:51:06;87.45;;;37.97;;
57832;SDS011;43667;53.036;6.740;2023-11-19T00:53:32;68.90;;;32.28;;
57832;SDS011;43667;53.036;6.740;2023-11-19T00:56:01;82.95;;;34.40;;
57832;SDS011;43667;53.036;6.740;2023-11-19T00:58:27;79.10;;;32.63;;
57832;SDS011;43667;53.036;6.740;2023-11-19T01:00:54;75.80;;;30.13;;
57832;SDS011;43667;53.036;6.740;2023-11-19T01:03:22;83.10;;;31.17;;
57832;SDS011;43667;53.036;6.740;2023-11-19T01:05:48;67.95;;;26.00;;
57832;SDS011;43667;53.036;6.740;2023-11-19T01:08:14;55.88;;;23.13;;
57832;SDS011;43667;53.036;6.740;2023-11-19T01:10:41;66.90;;;22.80;;
57832;SDS011;43667;53.036;6.740;2023-11-19T01:13:07;70.15;;;21.25;;
57832;SDS011;43667;53.036;6.740;2023-11-19T01:15:33;51.72;;;19.30;;
57832;SDS011;43667;53.036;6.740;2023-11-19T01:17:59;60.42;;;18.17;;
57832;SDS011;43667;53.036;6.740;2023-11-19T01:20:27;63.80;;;18.02;;
57832;SDS011;43667;53.036;6.740;2023-11-19T01:22:53;70.10;;;19.13;;
57832;SDS011;43667;53.036;6.740;2023-11-19T01:25:19;68.35;;;16.30;;
57832;SDS011;43667;53.036;6.740;2023-11-19T01:27:45;55.80;;;13.98;;
57832;SDS011;43667;53.036;6.740;2023-11-19T01:30:11;72.88;;;17.70;;
57832;SDS011;43667;53.036;6.740;2023-11-19T01:32:40;57.53;;;14.45;;
57832;SDS011;43667;53.036;6.740;2023-11-19T01:35:06;61.00;;;15.68;;
57832;SDS011;43667;53.036;6.740;2023-11-19T01:37:36;57.97;;;13.35;;
57832;SDS011;43667;53.036;6.740;2023-11-19T01:40:02;63.25;;;13.98;;
57832;SDS011;43667;53.036;6.740;2023-11-19T01:42:30;64.13;;;11.60;;
57832;SDS011;43667;53.036;6.740;2023-11-19T01:44:59;62.67;;;11.75;;
57832;SDS011;43667;53.036;6.740;2023-11-19T01:47:26;53.55;;;10.50;;
57832;SDS011;43667;53.036;6.740;2023-11-19T01:49:52;54.47;;;10.70;;
57832;SDS011;43667;53.036;6.740;2023-11-19T01:52:19;52.60;;;9.52;;
57832;SDS011;43667;53.036;6.740;2023-11-19T01:54:45;48.38;;;9.20;;
57832;SDS011;43667;53.036;6.740;2023-11-19T01:57:12;48.63;;;9.65;;
57832;SDS011;43667;53.036;6.740;2023-11-19T01:59:38;55.50;;;10.18;;
57832;SDS011;43667;53.036;6.740;2023-11-19T02:02:05;53.92;;;9.85;;
57832;SDS011;43667;53.036;6.740;2023-11-19T02:04:31;53.20;;;11.07;;
57832;SDS011;43667;53.036;6.740;2023-11-19T02:06:57;50.10;;;9.80;;
57832;SDS011;43667;53.036;6.740;2023-11-19T02:09:24;57.35;;;9.80;;
57832;SDS011;43667;53.036;6.740;2023-11-19T02:11:50;55.30;;;10.60;;
57832;SDS011;43667;53.036;6.740;2023-11-19T02:14:17;49.97;;;8.63;;
57832;SDS011;43667;53.036;6.740;2023-11-19T02:16:43;52.47;;;9.23;;
57832;SDS011;43667;53.036;6.740;2023-11-19T02:19:09;70.38;;;9.55;;
57832;SDS011;43667;53.036;6.740;2023-11-19T02:21:36;53.28;;;7.90;;
57832;SDS011;43667;53.036;6.740;2023-11-19T02:24:03;52.85;;;8.95;;
57832;SDS011;43667;53.036;6.740;2023-11-19T02:27:22;44.72;;;8.88;;
57832;SDS011;43667;53.036;6.740;2023-11-19T02:29:19;43.33;;;8.10;;
57832;SDS011;43667;53.036;6.740;2023-11-19T02:31:45;51.20;;;8.55;;
57832;SDS011;43667;53.036;6.740;2023-11-19T02:34:12;43.65;;;7.65;;
57832;SDS011;43667;53.036;6.740;2023-11-19T02:36:38;47.38;;;8.38;;
57832;SDS011;43667;53.036;6.740;2023-11-19T02:39:06;46.00;;;7.78;;
57832;SDS011;43667;53.036;6.740;2023-11-19T02:41:35;45.28;;;7.55;;
57832;SDS011;43667;53.036;6.740;2023-11-19T02:44:01;53.65;;;8.70;;
57832;SDS011;43667;53.036;6.740;2023-11-19T02:46:28;54.78;;;9.07;;
57832;SDS011;43667;53.036;6.740;2023-11-19T02:48:54;46.20;;;7.63;;
57832;SDS011;43667;53.036;6.740;2023-11-19T02:51:20;47.97;;;8.48;;
57832;SDS011;43667;53.036;6.740;2023-11-19T02:53:47;50.80;;;8.95;;
57832;SDS011;43667;53.036;6.740;2023-11-19T02:56:13;46.67;;;8.85;;
57832;SDS011;43667;53.036;6.740;2023-11-19T02:58:50;50.45;;;7.65;;
57832;SDS011;43667;53.036;6.740;2023-11-19T03:01:25;46.28;;;7.35;;
57832;SDS011;43667;53.036;6.740;2023-11-19T03:03:55;53.28;;;8.48;;
57832;SDS011;43667;53.036;6.740;2023-11-19T03:06:22;43.53;;;6.95;;
57832;SDS011;43667;53.036;6.740;2023-11-19T03:08:48;55.50;;;7.53;;
57832;SDS011;43667;53.036;6.740;2023-11-19T03:11:14;47.47;;;8.00;;
57832;SDS011;43667;53.036;6.740;2023-11-19T03:13:40;47.20;;;7.43;;
57832;SDS011;43667;53.036;6.740;2023-11-19T03:16:06;44.83;;;7.10;;
57832;SDS011;43667;53.036;6.740;2023-11-19T03:18:32;54.25;;;7.82;;
57832;SDS011;43667;53.036;6.740;2023-11-19T03:20:58;37.35;;;7.38;;
57832;SDS011;43667;53.036;6.740;2023-11-19T03:23:24;49.35;;;7.15;;
57832;SDS011;43667;53.036;6.740;2023-11-19T03:25:53;55.25;;;8.13;;
57832;SDS011;43667;53.036;6.740;2023-11-19T03:28:19;50.08;;;8.20;;
57832;SDS011;43667;53.036;6.740;2023-11-19T03:30:45;41.90;;;8.32;;
57832;SDS011;43667;53.036;6.740;2023-11-19T03:33:11;55.67;;;9.05;;
57832;SDS011;43667;53.036;6.740;2023-11-19T03:35:37;45.20;;;6.97;;
57832;SDS011;43667;53.036;6.740;2023-11-19T03:38:03;47.70;;;7.25;;
57832;SDS011;43667;53.036;6.740;2023-11-19T03:40:29;54.53;;;7.70;;
57832;SDS011;43667;53.036;6.740;2023-11-19T03:42:56;61.67;;;8.25;;
57832;SDS011;43667;53.036;6.740;2023-11-19T03:45:23;40.47;;;6.88;;
57832;SDS011;43667;53.036;6.740;2023-11-19T03:47:50;41.58;;;6.78;;
57832;SDS011;43667;53.036;6.740;2023-11-19T03:50:16;39.13;;;6.50;;
57832;SDS011;43667;53.036;6.740;2023-11-19T03:52:43;41.85;;;8.02;;
57832;SDS011;43667;53.036;6.740;2023-11-19T03:55:09;48.35;;;7.10;;
57832;SDS011;43667;53.036;6.740;2023-11-19T03:57:35;46.75;;;7.35;;
57832;SDS011;43667;53.036;6.740;2023-11-19T04:00:01;47.50;;;7.20;;
57832;SDS011;43667;53.036;6.740;2023-11-19T04:05:00;42.88;;;6.82;;
57832;SDS011;43667;53.036;6.740;2023-11-19T04:07:26;45.65;;;8.20;;
57832;SDS011;43667;53.036;6.740;2023-11-19T04:09:52;53.67;;;8.30;;
57832;SDS011;43667;53.036;6.740;2023-11-19T04:12:18;44.85;;;7.88;;
57832;SDS011;43667;53.036;6.740;2023-11-19T04:14:44;47.30;;;6.93;;
57832;SDS011;43667;53.036;6.740;2023-11-19T04:17:10;45.22;;;7.70;;
57832;SDS011;43667;53.036;6.740;2023-11-19T04:19:36;52.58;;;9.82;;
57832;SDS011;43667;53.036;6.740;2023-11-19T04:22:02;47.75;;;7.18;;
57832;SDS011;43667;53.036;6.740;2023-11-19T04:24:29;40.30;;;6.93;;
57832;SDS011;43667;53.036;6.740;2023-11-19T04:26:55;47.35;;;8.30;;
57832;SDS011;43667;53.036;6.740;2023-11-19T04:29:21;40.72;;;7.97;;
57832;SDS011;43667;53.036;6.740;2023-11-19T04:31:47;53.20;;;7.97;;
57832;SDS011;43667;53.036;6.740;2023-11-19T04:34:13;41.88;;;7.40;;
57832;SDS011;43667;53.036;6.740;2023-11-19T04:36:39;45.15;;;8.18;;
57832;SDS011;43667;53.036;6.740;2023-11-19T04:39:05;41.78;;;7.95;;
57832;SDS011;43667;53.036;6.740;2023-11-19T04:41:45;40.42;;;7.78;;
57832;SDS011;43667;53.036;6.740;2023-11-19T04:44:12;39.80;;;7.30;;
57832;SDS011;43667;53.036;6.740;2023-11-19T04:46:38;59.90;;;8.70;;
57832;SDS011;43667;53.036;6.740;2023-11-19T04:49:04;59.65;;;9.00;;
57832;SDS011;43667;53.036;6.740;2023-11-19T04:51:30;53.25;;;8.15;;
57832;SDS011;43667;53.036;6.740;2023-11-19T04:53:56;50.85;;;8.88;;
57832;SDS011;43667;53.036;6.740;2023-11-19T04:56:22;51.95;;;6.68;;
57832;SDS011;43667;53.036;6.740;2023-11-19T04:58:49;47.22;;;9.05;;
57832;SDS011;43667;53.036;6.740;2023-11-19T05:01:15;44.47;;;8.00;;
57832;SDS011;43667;53.036;6.740;2023-11-19T05:03:42;45.03;;;7.93;;
57832;SDS011;43667;53.036;6.740;2023-11-19T05:06:08;59.33;;;8.52;;
57832;SDS011;43667;53.036;6.740;2023-11-19T05:08:34;48.83;;;7.75;;
57832;SDS011;43667;53.036;6.740;2023-11-19T05:11:01;52.08;;;8.15;;
57832;SDS011;43667;53.036;6.740;2023-11-19T05:13:27;55.35;;;8.25;;
57832;SDS011;43667;53.036;6.740;2023-11-19T05:15:53;48.75;;;8.07;;
57832;SDS011;43667;53.036;6.740;2023-11-19T05:18:19;55.42;;;8.73;;
57832;SDS011;43667;53.036;6.740;2023-11-19T05:20:45;47.50;;;7.85;;
57832;SDS011;43667;53.036;6.740;2023-11-19T05:23:11;55.95;;;8.65;;
57832;SDS011;43667;53.036;6.740;2023-11-19T05:25:37;52.20;;;8.30;;
57832;SDS011;43667;53.036;6.740;2023-11-19T05:28:03;49.55;;;8.43;;
57832;SDS011;43667;53.036;6.740;2023-11-19T05:30:29;52.80;;;7.60;;
57832;SDS011;43667;53.036;6.740;2023-11-19T05:32:55;47.72;;;8.45;;
57832;SDS011;43667;53.036;6.740;2023-11-19T05:35:21;60.10;;;9.82;;
57832;SDS011;43667;53.036;6.740;2023-11-19T05:37:47;55.17;;;9.45;;
57832;SDS011;43667;53.036;6.740;2023-11-19T05:40:14;49.47;;;8.50;;
57832;SDS011;43667;53.036;6.740;2023-11-19T05:42:41;51.55;;;8.23;;
57832;SDS011;43667;53.036;6.740;2023-11-19T05:45:07;54.40;;;8.93;;
57832;SDS011;43667;53.036;6.740;2023-11-19T05:47:34;49.80;;;8.30;;
57832;SDS011;43667;53.036;6.740;2023-11-19T05:50:01;39.67;;;8.00;;
57832;SDS011;43667;53.036;6.740;2023-11-19T05:52:27;54.53;;;9.25;;
57832;SDS011;43667;53.036;6.740;2023-11-19T05:54:58;47.88;;;7.25;;
57832;SDS011;43667;53.036;6.740;2023-11-19T05:57:24;52.40;;;8.10;;
57832;SDS011;43667;53.036;6.740;2023-11-19T05:59:50;58.55;;;8.80;;
57832;SDS011;43667;53.036;6.740;2023-11-19T06:02:16;51.05;;;8.52;;
57832;SDS011;43667;53.036;6.740;2023-11-19T06:04:42;46.63;;;8.20;;
57832;SDS011;43667;53.036;6.740;2023-11-19T06:07:09;50.00;;;7.75;;
57832;SDS011;43667;53.036;6.740;2023-11-19T06:09:35;53.95;;;8.00;;
57832;SDS011;43667;53.036;6.740;2023-11-19T06:12:01;52.63;;;7.88;;
57832;SDS011;43667;53.036;6.740;2023-11-19T06:14:28;50.03;;;8.35;;
57832;SDS011;43667;53.036;6.740;2023-11-19T06:16:54;48.67;;;8.55;;
57832;SDS011;43667;53.036;6.740;2023-11-19T06:19:20;46.15;;;7.90;;
57832;SDS011;43667;53.036;6.740;2023-11-19T06:21:46;46.63;;;8.38;;
57832;SDS011;43667;53.036;6.740;2023-11-19T06:24:12;55.97;;;8.85;;
57832;SDS011;43667;53.036;6.740;2023-11-19T06:26:38;54.30;;;8.43;;
57832;SDS011;43667;53.036;6.740;2023-11-19T06:29:04;51.45;;;8.63;;
57832;SDS011;43667;53.036;6.740;2023-11-19T06:31:30;45.72;;;7.70;;
57832;SDS011;43667;53.036;6.740;2023-11-19T06:33:56;47.45;;;8.02;;
57832;SDS011;43667;53.036;6.740;2023-11-19T06:36:22;49.22;;;8.35;;
57832;SDS011;43667;53.036;6.740;2023-11-19T06:38:48;51.00;;;8.23;;
57832;SDS011;43667;53.036;6.740;2023-11-19T06:41:14;53.97;;;8.65;;
57832;SDS011;43667;53.036;6.740;2023-11-19T06:43:40;44.15;;;7.53;;
57832;SDS011;43667;53.036;6.740;2023-11-19T06:46:14;55.75;;;9.30;;
57832;SDS011;43667;53.036;6.740;2023-11-19T06:48:40;48.38;;;8.57;;
57832;SDS011;43667;53.036;6.740;2023-11-19T06:51:07;45.88;;;9.35;;
57832;SDS011;43667;53.036;6.740;2023-11-19T06:53:34;48.90;;;9.02;;
57832;SDS011;43667;53.036;6.740;2023-11-19T06:56:01;60.95;;;8.93;;
57832;SDS011;43667;53.036;6.740;2023-11-19T06:58:33;52.03;;;8.63;;
57832;SDS011;43667;53.036;6.740;2023-11-19T07:01:01;48.25;;;7.82;;
57832;SDS011;43667;53.036;6.740;2023-11-19T07:03:27;37.58;;;7.18;;
57832;SDS011;43667;53.036;6.740;2023-11-19T07:05:53;39.03;;;7.43;;
57832;SDS011;43667;53.036;6.740;2023-11-19T07:08:20;47.10;;;7.57;;
57832;SDS011;43667;53.036;6.740;2023-11-19T07:10:46;42.72;;;7.22;;
57832;SDS011;43667;53.036;6.740;2023-11-19T07:13:12;47.35;;;7.60;;
57832;SDS011;43667;53.036;6.740;2023-11-19T07:15:38;44.15;;;7.93;;
57832;SDS011;43667;53.036;6.740;2023-11-19T07:18:04;46.13;;;6.93;;
57832;SDS011;43667;53.036;6.740;2023-11-19T07:20:30;53.75;;;8.20;;
57832;SDS011;43667;53.036;6.740;2023-11-19T07:22:58;46.60;;;8.00;;
57832;SDS011;43667;53.036;6.740;2023-11-19T07:25:24;43.05;;;7.15;;
57832;SDS011;43667;53.036;6.740;2023-11-19T07:27:51;49.70;;;8.18;;
57832;SDS011;43667;53.036;6.740;2023-11-19T07:30:17;55.45;;;8.63;;
57832;SDS011;43667;53.036;6.740;2023-11-19T07:32:43;37.28;;;6.72;;
57832;SDS011;43667;53.036;6.740;2023-11-19T07:35:09;48.50;;;7.97;;
57832;SDS011;43667;53.036;6.740;2023-11-19T07:37:36;43.08;;;7.07;;
57832;SDS011;43667;53.036;6.740;2023-11-19T07:40:02;48.50;;;8.27;;
57832;SDS011;43667;53.036;6.740;2023-11-19T07:42:29;62.20;;;10.73;;
57832;SDS011;43667;53.036;6.740;2023-11-19T07:44:56;50.65;;;8.80;;
57832;SDS011;43667;53.036;6.740;2023-11-19T07:47:22;51.08;;;7.65;;
57832;SDS011;43667;53.036;6.740;2023-11-19T07:49:48;41.13;;;7.20;;
57832;SDS011;43667;53.036;6.740;2023-11-19T07:52:14;42.40;;;7.78;;
57832;SDS011;43667;53.036;6.740;2023-11-19T07:54:40;38.70;;;7.53;;
57832;SDS011;43667;53.036;6.740;2023-11-19T07:57:06;49.20;;;8.10;;
57832;SDS011;43667;53.036;6.740;2023-11-19T07:59:32;42.55;;;7.85;;
57832;SDS011;43667;53.036;6.740;2023-11-19T08:01:58;52.80;;;8.82;;
57832;SDS011;43667;53.036;6.740;2023-11-19T08:04:24;43.70;;;7.15;;
57832;SDS011;43667;53.036;6.740;2023-11-19T08:06:50;47.97;;;7.88;;
57832;SDS011;43667;53.036;6.740;2023-11-19T08:09:16;43.45;;;7.90;;
57832;SDS011;43667;53.036;6.740;2023-11-19T08:11:43;42.65;;;7.72;;
57832;SDS011;43667;53.036;6.740;2023-11-19T08:14:09;53.88;;;8.02;;
57832;SDS011;43667;53.036;6.740;2023-11-19T08:16:35;39.28;;;8.13;;
57832;SDS011;43667;53.036;6.740;2023-11-19T08:19:03;45.45;;;7.45;;
57832;SDS011;43667;53.036;6.740;2023-11-19T08:21:29;44.08;;;6.70;;
57832;SDS011;43667;53.036;6.740;2023-11-19T08:23:55;51.47;;;7.18;;
57832;SDS011;43667;53.036;6.740;2023-11-19T08:26:21;51.80;;;8.20;;
57832;SDS011;43667;53.036;6.740;2023-11-19T08:28:47;45.92;;;7.88;;
57832;SDS011;43667;53.036;6.740;2023-11-19T08:31:13;52.45;;;9.05;;
57832;SDS011;43667;53.036;6.740;2023-11-19T08:33:39;43.10;;;7.18;;
57832;SDS011;43667;53.036;6.740;2023-11-19T08:36:05;46.72;;;8.25;;
57832;SDS011;43667;53.036;6.740;2023-11-19T08:38:31;38.97;;;7.38;;
57832;SDS011;43667;53.036;6.740;2023-11-19T08:40:57;42.42;;;7.18;;
57832;SDS011;43667;53.036;6.740;2023-11-19T08:43:25;45.35;;;7.68;;
57832;SDS011;43667;53.036;6.740;2023-11-19T08:45:51;37.03;;;7.35;;
57832;SDS011;43667;53.036;6.740;2023-11-19T08:48:17;53.63;;;8.77;;
57832;SDS011;43667;53.036;6.740;2023-11-19T08:50:43;42.42;;;7.45;;
57832;SDS011;43667;53.036;6.740;2023-11-19T08:53:09;52.22;;;9.30;;
57832;SDS011;43667;53.036;6.740;2023-11-19T08:55:36;52.88;;;7.88;;
57832;SDS011;43667;53.036;6.740;2023-11-19T08:58:02;57.88;;;8.65;;
57832;SDS011;43667;53.036;6.740;2023-11-19T09:00:28;47.25;;;7.93;;
57832;SDS011;43667;53.036;6.740;2023-11-19T09:02:55;59.30;;;9.80;;
57832;SDS011;43667;53.036;6.740;2023-11-19T09:05:23;51.33;;;9.27;;
57832;SDS011;43667;53.036;6.740;2023-11-19T09:07:49;50.28;;;9.60;;
57832;SDS011;43667;53.036;6.740;2023-11-19T09:10:15;42.85;;;6.93;;
57832;SDS011;43667;53.036;6.740;2023-11-19T09:12:41;56.67;;;9.18;;
57832;SDS011;43667;53.036;6.740;2023-11-19T09:15:07;46.95;;;8.43;;
57832;SDS011;43667;53.036;6.740;2023-11-19T09:17:35;53.33;;;8.25;;
57832;SDS011;43667;53.036;6.740;2023-11-19T09:20:01;50.72;;;8.68;;
57832;SDS011;43667;53.036;6.740;2023-11-19T09:22:28;58.42;;;9.32;;
57832;SDS011;43667;53.036;6.740;2023-11-19T09:24:54;52.42;;;8.63;;
57832;SDS011;43667;53.036;6.740;2023-11-19T09:27:20;49.00;;;7.93;;
57832;SDS011;43667;53.036;6.740;2023-11-19T09:29:46;50.90;;;7.82;;
57832;SDS011;43667;53.036;6.740;2023-11-19T09:32:14;48.97;;;8.27;;
57832;SDS011;43667;53.036;6.740;2023-11-19T09:34:39;41.45;;;8.00;;
57832;SDS011;43667;53.036;6.740;2023-11-19T09:37:05;50.58;;;8.38;;
57832;SDS011;43667;53.036;6.740;2023-11-19T09:39:32;45.08;;;7.53;;
57832;SDS011;43667;53.036;6.740;2023-11-19T09:41:58;48.85;;;7.93;;
57832;SDS011;43667;53.036;6.740;2023-11-19T09:44:25;44.35;;;7.78;;
57832;SDS011;43667;53.036;6.740;2023-11-19T09:46:51;47.78;;;8.82;;
57832;SDS011;43667;53.036;6.740;2023-11-19T09:49:18;42.28;;;7.68;;
57832;SDS011;43667;53.036;6.740;2023-11-19T09:51:48;46.15;;;6.85;;
57832;SDS011;43667;53.036;6.740;2023-11-19T09:54:14;39.47;;;8.20;;
57832;SDS011;43667;53.036;6.740;2023-11-19T09:56:40;45.22;;;7.78;;
57832;SDS011;43667;53.036;6.740;2023-11-19T09:59:07;47.60;;;7.85;;
57832;SDS011;43667;53.036;6.740;2023-11-19T10:01:35;42.05;;;6.82;;
57832;SDS011;43667;53.036;6.740;2023-11-19T10:04:01;44.30;;;8.13;;
57832;SDS011;43667;53.036;6.740;2023-11-19T10:06:27;45.97;;;7.18;;
57832;SDS011;43667;53.036;6.740;2023-11-19T10:08:53;49.53;;;8.25;;
57832;SDS011;43667;53.036;6.740;2023-11-19T10:11:20;45.53;;;7.57;;
57832;SDS011;43667;53.036;6.740;2023-11-19T10:13:46;40.22;;;7.25;;
57832;SDS011;43667;53.036;6.740;2023-11-19T10:16:13;50.97;;;9.30;;
57832;SDS011;43667;53.036;6.740;2023-11-19T10:18:46;46.50;;;7.80;;
57832;SDS011;43667;53.036;6.740;2023-11-19T10:21:12;47.85;;;8.25;;
57832;SDS011;43667;53.036;6.740;2023-11-19T10:26:15;51.28;;;8.45;;
57832;SDS011;43667;53.036;6.740;2023-11-19T10:28:41;41.25;;;7.22;;
57832;SDS011;43667;53.036;6.740;2023-11-19T10:31:12;46.60;;;7.65;;
57832;SDS011;43667;53.036;6.740;2023-11-19T10:33:38;40.30;;;7.40;;
57832;SDS011;43667;53.036;6.740;2023-11-19T10:36:04;47.38;;;7.20;;
57832;SDS011;43667;53.036;6.740;2023-11-19T10:38:30;40.45;;;6.78;;
57832;SDS011;43667;53.036;6.740;2023-11-19T10:40:56;45.50;;;7.72;;
57832;SDS011;43667;53.036;6.740;2023-11-19T10:43:22;52.88;;;8.05;;
57832;SDS011;43667;53.036;6.740;2023-11-19T10:45:49;45.28;;;7.78;;
57832;SDS011;43667;53.036;6.740;2023-11-19T10:48:15;44.22;;;7.40;;
57832;SDS011;43667;53.036;6.740;2023-11-19T10:50:43;40.97;;;6.57;;
57832;SDS011;43667;53.036;6.740;2023-11-19T10:53:10;33.13;;;6.10;;
57832;SDS011;43667;53.036;6.740;2023-11-19T10:55:40;40.83;;;6.50;;
57832;SDS011;43667;53.036;6.740;2023-11-19T10:58:07;34.58;;;7.03;;
57832;SDS011;43667;53.036;6.740;2023-11-19T11:00:43;35.38;;;6.47;;
57832;SDS011;43667;53.036;6.740;2023-11-19T11:03:20;37.58;;;6.28;;
57832;SDS011;43667;53.036;6.740;2023-11-19T11:05:50;31.52;;;5.40;;
57832;SDS011;43667;53.036;6.740;2023-11-19T11:08:16;49.70;;;7.78;;
57832;SDS011;43667;53.036;6.740;2023-11-19T11:10:44;46.63;;;8.40;;
57832;SDS011;43667;53.036;6.740;2023-11-19T11:13:10;39.28;;;5.95;;
57832;SDS011;43667;53.036;6.740;2023-11-19T11:15:37;44.55;;;6.63;;
57832;SDS011;43667;53.036;6.740;2023-11-19T11:18:03;34.28;;;6.15;;
57832;SDS011;43667;53.036;6.740;2023-11-19T11:20:31;46.55;;;7.70;;
57832;SDS011;43667;53.036;6.740;2023-11-19T11:31:15;41.50;;;7.00;;
57832;SDS011;43667;53.036;6.740;2023-11-19T11:36:31;38.22;;;7.10;;
57832;SDS011;43667;53.036;6.740;2023-11-19T11:38:59;45.42;;;7.43;;
57832;SDS011;43667;53.036;6.740;2023-11-19T11:41:26;38.33;;;7.25;;
57832;SDS011;43667;53.036;6.740;2023-11-19T11:43:53;35.08;;;7.05;;
57832;SDS011;43667;53.036;6.740;2023-11-19T11:49:01;45.42;;;7.32;;
57832;SDS011;43667;53.036;6.740;2023-11-19T11:54:09;43.47;;;7.68;;
57832;SDS011;43667;53.036;6.740;2023-11-19T11:56:38;49.05;;;8.00;;
57832;SDS011;43667;53.036;6.740;2023-11-19T11:59:07;57.30;;;8.13;;
57832;SDS011;43667;53.036;6.740;2023-11-19T12:01:34;45.85;;;7.93;;
57832;SDS011;43667;53.036;6.740;2023-11-19T12:04:00;45.42;;;6.88;;
57832;SDS011;43667;53.036;6.740;2023-11-19T12:06:27;37.97;;;6.05;;
57832;SDS011;43667;53.036;6.740;2023-11-19T12:08:57;40.22;;;6.20;;
57832;SDS011;43667;53.036;6.740;2023-11-19T12:11:25;40.58;;;6.43;;
57832;SDS011;43667;53.036;6.740;2023-11-19T12:13:55;45.97;;;6.85;;
57832;SDS011;43667;53.036;6.740;2023-11-19T12:16:24;38.42;;;5.82;;
57832;SDS011;43667;53.036;6.740;2023-11-19T12:18:52;46.15;;;7.22;;
57832;SDS011;43667;53.036;6.740;2023-11-19T12:21:28;44.22;;;6.47;;
57832;SDS011;43667;53.036;6.740;2023-11-19T12:23:55;42.55;;;7.00;;
57832;SDS011;43667;53.036;6.740;2023-11-19T12:26:31;44.88;;;6.75;;
57832;SDS011;43667;53.036;6.740;2023-11-19T12:29:01;41.17;;;6.63;;
57832;SDS011;43667;53.036;6.740;2023-11-19T12:31:29;43.85;;;6.28;;
57832;SDS011;43667;53.036;6.740;2023-11-19T12:33:55;41.55;;;6.40;;
57832;SDS011;43667;53.036;6.740;2023-11-19T12:36:21;49.95;;;7.32;;
57832;SDS011;43667;53.036;6.740;2023-11-19T12:38:47;45.50;;;9.02;;
57832;SDS011;43667;53.036;6.740;2023-11-19T12:41:14;49.45;;;7.93;;
57832;SDS011;43667;53.036;6.740;2023-11-19T12:43:45;42.25;;;7.10;;
57832;SDS011;43667;53.036;6.740;2023-11-19T12:48:45;55.67;;;7.82;;
57832;SDS011;43667;53.036;6.740;2023-11-19T12:51:11;50.15;;;9.63;;
57832;SDS011;43667;53.036;6.740;2023-11-19T12:53:53;39.40;;;6.88;;
57832;SDS011;43667;53.036;6.740;2023-11-19T12:56:20;41.33;;;6.38;;
57832;SDS011;43667;53.036;6.740;2023-11-19T12:58:46;40.65;;;7.03;;
57832;SDS011;43667;53.036;6.740;2023-11-19T13:01:16;43.28;;;8.18;;
57832;SDS011;43667;53.036;6.740;2023-11-19T13:03:43;38.17;;;7.40;;
57832;SDS011;43667;53.036;6.740;2023-11-19T13:06:10;40.15;;;7.38;;
57832;SDS011;43667;53.036;6.740;2023-11-19T13:08:37;43.20;;;8.10;;
57832;SDS011;43667;53.036;6.740;2023-11-19T13:11:03;37.65;;;6.78;;
57832;SDS011;43667;53.036;6.740;2023-11-19T13:13:30;39.97;;;7.03;;
57832;SDS011;43667;53.036;6.740;2023-11-19T13:16:02;39.75;;;7.75;;
57832;SDS011;43667;53.036;6.740;2023-11-19T13:18:30;38.47;;;6.45;;
57832;SDS011;43667;53.036;6.740;2023-11-19T13:20:56;41.22;;;7.05;;
57832;SDS011;43667;53.036;6.740;2023-11-19T13:23:22;35.40;;;6.93;;
57832;SDS011;43667;53.036;6.740;2023-11-19T13:25:48;46.67;;;7.10;;
57832;SDS011;43667;53.036;6.740;2023-11-19T13:28:14;42.05;;;7.07;;
57832;SDS011;43667;53.036;6.740;2023-11-19T13:30:40;39.03;;;7.13;;
57832;SDS011;43667;53.036;6.740;2023-11-19T13:33:06;38.70;;;6.10;;
57832;SDS011;43667;53.036;6.740;2023-11-19T13:35:32;38.55;;;6.70;;
57832;SDS011;43667;53.036;6.740;2023-11-19T13:37:59;44.80;;;7.00;;
57832;SDS011;43667;53.036;6.740;2023-11-19T13:40:25;40.08;;;6.68;;
57832;SDS011;43667;53.036;6.740;2023-11-19T13:42:51;39.03;;;6.13;;
57832;SDS011;43667;53.036;6.740;2023-11-19T13:45:17;31.75;;;5.68;;
57832;SDS011;43667;53.036;6.740;2023-11-19T13:47:44;44.97;;;7.95;;
57832;SDS011;43667;53.036;6.740;2023-11-19T13:50:13;35.05;;;5.78;;
57832;SDS011;43667;53.036;6.740;2023-11-19T13:52:40;39.13;;;5.80;;
57832;SDS011;43667;53.036;6.740;2023-11-19T13:55:07;38.92;;;6.65;;
57832;SDS011;43667;53.036;6.740;2023-11-19T13:57:33;34.35;;;6.05;;
57832;SDS011;43667;53.036;6.740;2023-11-19T14:00:00;37.80;;;6.30;;
57832;SDS011;43667;53.036;6.740;2023-11-19T14:02:28;40.33;;;5.40;;
57832;SDS011;43667;53.036;6.740;2023-11-19T14:04:54;37.33;;;7.38;;
57832;SDS011;43667;53.036;6.740;2023-11-19T14:07:20;43.50;;;6.55;;
57832;SDS011;43667;53.036;6.740;2023-11-19T14:09:46;39.05;;;6.45;;
57832;SDS011;43667;53.036;6.740;2023-11-19T14:12:12;40.15;;;6.35;;
57832;SDS011;43667;53.036;6.740;2023-11-19T14:14:38;37.42;;;6.20;;
57832;SDS011;43667;53.036;6.740;2023-11-19T14:17:04;44.65;;;6.45;;
57832;SDS011;43667;53.036;6.740;2023-11-19T14:19:30;45.25;;;7.47;;
57832;SDS011;43667;53.036;6.740;2023-11-19T14:21:56;40.05;;;6.28;;
57832;SDS011;43667;53.036;6.740;2023-11-19T14:24:22;37.30;;;6.30;;
57832;SDS011;43667;53.036;6.740;2023-11-19T14:26:49;42.00;;;6.88;;
57832;SDS011;43667;53.036;6.740;2023-11-19T14:29:16;40.83;;;6.88;;
57832;SDS011;43667;53.036;6.740;2023-11-19T14:31:42;38.20;;;6.85;;
57832;SDS011;43667;53.036;6.740;2023-11-19T14:34:08;41.25;;;6.32;;
57832;SDS011;43667;53.036;6.740;2023-11-19T14:36:34;38.70;;;6.75;;
57832;SDS011;43667;53.036;6.740;2023-11-19T14:39:00;39.90;;;7.03;;
57832;SDS011;43667;53.036;6.740;2023-11-19T14:41:26;42.00;;;6.53;;
57832;SDS011;43667;53.036;6.740;2023-11-19T14:43:52;40.05;;;7.10;;
57832;SDS011;43667;53.036;6.740;2023-11-19T14:46:18;40.03;;;6.18;;
57832;SDS011;43667;53.036;6.740;2023-11-19T14:48:44;37.35;;;6.68;;
57832;SDS011;43667;53.036;6.740;2023-11-19T14:51:10;40.70;;;6.80;;
57832;SDS011;43667;53.036;6.740;2023-11-19T14:53:37;37.05;;;6.05;;
57832;SDS011;43667;53.036;6.740;2023-11-19T14:56:03;39.83;;;7.03;;